createdAt,value
2018-08-06T00:00:13.028Z,12.47
2018-08-06T00:01:12.984Z,12.56
2018-08-06T00:02:12.957Z,12.50
2018-08-06T00:03:12.919Z,12.46
2018-08-06T00:04:12.878Z,12.39
2018-08-06T00:05:12.844Z,12.39
2018-08-06T00:06:12.840Z,12.56
2018-08-06T00:07:12.790Z,12.53
2018-08-06T00:08:12.733Z,12.42
2018-08-06T00:09:12.692Z,12.41
2018-08-06T00:10:12.678Z,12.27
2018-08-06T00:11:12.640Z,12.23
2018-08-06T00:12:12.597Z,12.16
2018-08-06T00:13:12.589Z,12.13
2018-08-06T00:14:12.516Z,12.10
2018-08-06T00:15:12.493Z,12.01
2018-08-06T00:16:12.447Z,11.94
2018-08-06T00:17:12.419Z,11.88
2018-08-06T00:18:12.393Z,11.86
2018-08-06T00:19:12.336Z,11.96
2018-08-06T00:20:12.302Z,12.02
2018-08-06T00:21:12.273Z,12.21
2018-08-06T00:22:12.226Z,12.23
2018-08-06T00:23:12.186Z,12.17
2018-08-06T00:24:12.176Z,12.13
2018-08-06T00:25:12.143Z,12.27
2018-08-06T00:26:12.081Z,12.10
2018-08-06T00:27:12.055Z,12.16
2018-08-06T00:28:12.030Z,12.17
2018-08-06T00:29:11.990Z,12.21
2018-08-06T00:30:11.965Z,12.23
2018-08-06T00:31:11.899Z,12.21
2018-08-06T00:32:11.877Z,12.20
2018-08-06T00:33:11.828Z,12.31
2018-08-06T00:34:11.792Z,12.23
2018-08-06T00:35:11.779Z,12.27
2018-08-06T00:36:11.714Z,12.32
2018-08-06T00:37:11.699Z,12.31
2018-08-06T00:38:11.658Z,12.23
2018-08-06T00:39:11.630Z,12.20
2018-08-06T00:40:11.570Z,12.20
2018-08-06T00:41:11.552Z,12.20
2018-08-06T00:42:11.497Z,12.16
2018-08-06T00:43:11.458Z,12.21
2018-08-06T00:44:11.435Z,12.20
2018-08-06T00:45:11.403Z,12.04
2018-08-06T00:46:11.366Z,12.01
2018-08-06T00:47:11.342Z,12.05
2018-08-06T00:48:11.277Z,12.02
2018-08-06T00:49:11.246Z,12.01
2018-08-06T00:50:11.231Z,12.04
2018-08-06T00:51:11.210Z,12.13
2018-08-06T00:52:11.145Z,12.10
2018-08-06T00:53:11.097Z,12.20
2018-08-06T00:54:11.080Z,12.38
2018-08-06T00:55:11.030Z,12.41
2018-08-06T00:56:10.991Z,12.39
2018-08-06T00:57:10.968Z,12.37
2018-08-06T00:58:10.921Z,12.28
2018-08-06T00:59:10.873Z,12.14
2018-08-06T01:00:10.837Z,12.23
2018-08-06T01:01:10.820Z,12.23
2018-08-06T01:02:10.768Z,12.14
2018-08-06T01:03:10.746Z,12.23
2018-08-06T01:04:10.698Z,12.24
2018-08-06T01:05:10.671Z,12.09
2018-08-06T01:06:10.626Z,12.01
2018-08-06T01:07:10.584Z,11.88
2018-08-06T01:08:10.552Z,11.91
2018-08-06T01:09:10.515Z,11.94
2018-08-06T01:10:10.495Z,11.88
2018-08-06T01:11:10.447Z,11.88
2018-08-06T01:12:10.398Z,11.96
2018-08-06T01:13:10.357Z,11.95
2018-08-06T01:14:10.353Z,11.91
2018-08-06T01:15:10.295Z,11.91
2018-08-06T01:16:10.264Z,11.83
2018-08-06T01:17:10.221Z,11.75
2018-08-06T01:18:10.180Z,11.73
2018-08-06T01:19:10.149Z,11.72
2018-08-06T01:20:10.118Z,11.65
2018-08-06T01:21:10.086Z,11.65
2018-08-06T01:22:10.040Z,11.78
2018-08-06T01:23:09.992Z,11.73
2018-08-06T01:24:09.982Z,11.72
2018-08-06T01:25:09.932Z,11.65
2018-08-06T01:26:09.883Z,11.58
2018-08-06T01:27:09.869Z,11.46
2018-08-06T01:28:09.816Z,11.46
2018-08-06T01:29:09.781Z,11.46
2018-08-06T01:30:09.737Z,11.44
2018-08-06T01:31:09.731Z,11.39
2018-08-06T01:32:09.668Z,11.46
2018-08-06T01:33:09.633Z,11.52
2018-08-06T01:34:09.598Z,11.58
2018-08-06T01:35:09.576Z,11.69
2018-08-06T01:36:09.535Z,11.65
2018-08-06T01:37:09.496Z,11.60
2018-08-06T01:38:09.466Z,11.42
2018-08-06T01:39:09.412Z,11.33
2018-08-06T01:40:09.391Z,11.25
2018-08-06T01:41:09.341Z,11.29
2018-08-06T01:42:09.293Z,11.27
2018-08-06T01:43:09.253Z,11.27
2018-08-06T01:44:09.221Z,11.17
2018-08-06T01:45:09.193Z,11.15
2018-08-06T01:46:09.144Z,11.15
2018-08-06T01:47:09.104Z,11.06
2018-08-06T01:48:09.090Z,10.97
2018-08-06T01:49:09.063Z,10.89
2018-08-06T01:50:08.998Z,10.89
2018-08-06T01:51:08.959Z,10.89
2018-08-06T01:52:08.926Z,10.94
2018-08-06T01:53:08.883Z,11.10
2018-08-06T01:54:08.896Z,11.14
2018-08-06T01:55:08.821Z,11.19
2018-08-06T01:56:08.798Z,11.24
2018-08-06T01:57:08.771Z,11.28
2018-08-06T01:58:08.720Z,11.25
2018-08-06T01:59:08.664Z,11.28
2018-08-06T02:00:08.642Z,11.37
2018-08-06T02:01:08.600Z,11.32
2018-08-06T02:02:08.558Z,11.24
2018-08-06T02:03:08.521Z,11.19
2018-08-06T02:04:08.499Z,11.14
2018-08-06T02:05:08.441Z,11.18
2018-08-06T02:06:08.440Z,11.21
2018-08-06T02:07:08.377Z,11.25
2018-08-06T02:08:08.368Z,11.24
2018-08-06T02:09:08.302Z,11.28
2018-08-06T02:10:08.281Z,11.25
2018-08-06T02:11:08.220Z,11.35
2018-08-06T02:12:08.185Z,11.22
2018-08-06T02:13:08.153Z,11.22
2018-08-06T02:14:08.121Z,11.19
2018-08-06T02:15:08.086Z,11.22
2018-08-06T02:16:08.042Z,11.15
2018-08-06T02:17:08.008Z,11.19
2018-08-06T02:18:07.964Z,11.18
2018-08-06T02:19:07.928Z,11.21
2018-08-06T02:20:07.882Z,11.17
2018-08-06T02:21:07.857Z,11.14
2018-08-06T02:22:07.814Z,11.19
2018-08-06T02:23:07.781Z,11.17
2018-08-06T02:24:07.739Z,11.25
2018-08-06T02:25:07.726Z,11.11
2018-08-06T02:26:07.668Z,11.09
2018-08-06T02:27:07.635Z,11.07
2018-08-06T02:28:07.593Z,10.97
2018-08-06T02:29:07.552Z,10.94
2018-08-06T02:30:07.520Z,11.00
2018-08-06T02:31:07.508Z,11.07
2018-08-06T02:32:07.454Z,11.03
2018-08-06T02:33:07.411Z,11.11
2018-08-06T02:34:07.369Z,11.06
2018-08-06T02:35:07.346Z,11.06
2018-08-06T02:36:07.298Z,11.06
2018-08-06T02:37:07.262Z,10.89
2018-08-06T02:38:07.222Z,10.81
2018-08-06T02:39:07.189Z,10.67
2018-08-06T02:40:07.141Z,10.66
2018-08-06T02:41:07.100Z,10.53
2018-08-06T02:42:07.064Z,10.48
2018-08-06T02:43:07.027Z,10.47
2018-08-06T02:44:06.992Z,10.55
2018-08-06T02:45:06.994Z,10.71
2018-08-06T02:46:06.920Z,10.89
2018-08-06T02:47:06.896Z,10.96
2018-08-06T02:48:06.852Z,11.06
2018-08-06T02:49:06.806Z,11.03
2018-08-06T02:50:06.775Z,11.04
2018-08-06T02:51:06.743Z,11.06
2018-08-06T02:52:06.698Z,10.94
2018-08-06T02:53:06.655Z,10.97
2018-08-06T02:54:06.617Z,10.92
2018-08-06T02:55:06.574Z,10.88
2018-08-06T02:56:06.541Z,10.86
2018-08-06T02:57:06.504Z,10.76
2018-08-06T02:58:06.472Z,10.85
2018-08-06T02:59:06.458Z,10.89
2018-08-06T03:00:06.396Z,10.92
2018-08-06T03:01:06.376Z,11.07
2018-08-06T03:02:06.330Z,11.14
2018-08-06T03:03:06.286Z,11.21
2018-08-06T03:04:06.248Z,11.18
2018-08-06T03:05:06.204Z,11.17
2018-08-06T03:06:06.183Z,11.03
2018-08-06T03:07:06.143Z,10.92
2018-08-06T03:08:06.099Z,10.78
2018-08-06T03:09:06.066Z,10.68
2018-08-06T03:10:06.051Z,10.73
2018-08-06T03:11:05.990Z,10.86
2018-08-06T03:12:05.950Z,10.91
2018-08-06T03:13:05.913Z,10.86
2018-08-06T03:14:05.870Z,10.86
2018-08-06T03:15:05.833Z,10.84
2018-08-06T03:16:05.796Z,10.76
2018-08-06T03:17:05.824Z,10.74
2018-08-06T03:18:05.721Z,10.64
2018-08-06T03:19:05.688Z,10.71
2018-08-06T03:20:05.653Z,10.79
2018-08-06T03:21:05.622Z,10.73
2018-08-06T03:22:05.594Z,10.79
2018-08-06T03:23:05.551Z,10.71
2018-08-06T03:24:05.509Z,10.66
2018-08-06T03:25:05.460Z,10.67
2018-08-06T03:26:05.412Z,10.64
2018-08-06T03:27:05.399Z,10.64
2018-08-06T03:28:05.376Z,10.61
2018-08-06T03:29:05.316Z,10.67
2018-08-06T03:30:05.285Z,10.59
2018-08-06T03:31:05.254Z,10.59
2018-08-06T03:32:05.204Z,10.52
2018-08-06T03:33:05.166Z,10.47
2018-08-06T03:34:05.152Z,10.48
2018-08-06T03:35:05.103Z,10.44
2018-08-06T03:36:05.073Z,10.48
2018-08-06T03:37:05.070Z,10.52
2018-08-06T03:38:05.023Z,10.41
2018-08-06T03:39:04.941Z,10.60
2018-08-06T03:40:04.914Z,10.66
2018-08-06T03:41:04.864Z,10.66
2018-08-06T03:42:04.825Z,10.66
2018-08-06T03:43:04.788Z,10.73
2018-08-06T03:44:04.750Z,10.56
2018-08-06T03:45:04.705Z,10.48
2018-08-06T03:46:04.669Z,10.51
2018-08-06T03:47:04.645Z,10.45
2018-08-06T03:48:04.590Z,10.47
2018-08-06T03:49:04.576Z,10.52
2018-08-06T03:50:04.535Z,10.59
2018-08-06T03:51:04.474Z,10.45
2018-08-06T03:52:04.433Z,10.61
2018-08-06T03:53:04.405Z,10.59
2018-08-06T03:54:04.374Z,10.56
2018-08-06T03:55:04.338Z,10.66
2018-08-06T03:56:04.287Z,10.70
2018-08-06T03:57:04.255Z,10.60
2018-08-06T03:58:04.210Z,10.59
2018-08-06T03:59:04.200Z,10.59
2018-08-06T04:00:04.144Z,10.56
2018-08-06T04:01:04.106Z,10.60
2018-08-06T04:02:04.105Z,10.53
2018-08-06T04:03:04.084Z,10.48
2018-08-06T04:04:04.022Z,10.60
2018-08-06T04:05:03.964Z,10.53
2018-08-06T04:06:03.915Z,10.55
2018-08-06T04:07:03.901Z,10.67
2018-08-06T04:08:03.873Z,10.73
2018-08-06T04:09:03.806Z,10.71
2018-08-06T04:10:03.762Z,10.61
2018-08-06T04:11:03.734Z,10.53
2018-08-06T04:12:03.706Z,10.56
2018-08-06T04:13:03.690Z,10.47
2018-08-06T04:14:03.629Z,10.61
2018-08-06T04:15:03.574Z,10.59
2018-08-06T04:16:03.556Z,10.56
2018-08-06T04:17:03.515Z,10.64
2018-08-06T04:18:03.521Z,10.60
2018-08-06T04:19:03.419Z,10.64
2018-08-06T04:20:03.381Z,10.61
2018-08-06T04:21:03.341Z,10.64
2018-08-06T04:22:03.318Z,10.51
2018-08-06T04:23:03.303Z,10.53
2018-08-06T04:24:03.246Z,10.47
2018-08-06T04:25:03.218Z,10.42
2018-08-06T04:26:03.165Z,10.52
2018-08-06T04:27:03.137Z,10.42
2018-08-06T04:28:03.080Z,10.47
2018-08-06T04:29:03.038Z,10.56
2018-08-06T04:30:03.021Z,10.59
2018-08-06T04:31:02.971Z,10.60
2018-08-06T04:32:02.950Z,10.47
2018-08-06T04:33:02.918Z,10.59
2018-08-06T04:34:02.859Z,10.59
2018-08-06T04:35:03.678Z,10.60
2018-08-06T04:36:02.786Z,10.56
2018-08-06T04:37:02.770Z,10.61
2018-08-06T04:38:02.708Z,10.66
2018-08-06T04:39:02.672Z,10.82
2018-08-06T04:40:02.635Z,10.76
2018-08-06T04:41:02.590Z,10.84
2018-08-06T04:42:02.576Z,10.79
2018-08-06T04:43:02.529Z,10.70
2018-08-06T04:44:02.550Z,10.73
2018-08-06T04:45:02.456Z,10.85
2018-08-06T04:46:02.467Z,10.74
2018-08-06T04:47:02.377Z,10.85
2018-08-06T04:48:02.329Z,10.89
2018-08-06T04:49:02.291Z,10.94
2018-08-06T04:50:02.269Z,11.06
2018-08-06T04:51:02.252Z,11.02
2018-08-06T04:52:02.187Z,11.10
2018-08-06T04:53:02.159Z,11.06
2018-08-06T04:54:02.113Z,11.15
2018-08-06T04:55:02.075Z,11.22
2018-08-06T04:56:02.033Z,11.19
2018-08-06T04:57:02.006Z,11.28
2018-08-06T04:58:02.017Z,11.32
2018-08-06T04:59:02.018Z,11.28
2018-08-06T05:00:01.888Z,11.40
2018-08-06T05:01:01.840Z,11.40
2018-08-06T05:02:01.811Z,11.42
2018-08-06T05:03:01.786Z,11.43
2018-08-06T05:04:01.766Z,11.42
2018-08-06T05:05:01.693Z,11.52
2018-08-06T05:06:01.663Z,11.52
2018-08-06T05:07:01.708Z,11.61
2018-08-06T05:08:01.585Z,11.55
2018-08-06T05:09:01.552Z,11.72
2018-08-06T05:10:01.510Z,11.65
2018-08-06T05:11:01.475Z,11.72
2018-08-06T05:12:01.462Z,11.80
2018-08-06T05:13:01.405Z,11.91
2018-08-06T05:14:01.387Z,12.10
2018-08-06T05:15:01.326Z,12.16
2018-08-06T05:16:01.284Z,12.24
2018-08-06T05:17:01.261Z,12.53
2018-08-06T05:18:01.221Z,12.74
2018-08-06T05:19:01.179Z,12.87
2018-08-06T05:20:01.156Z,12.97
2018-08-06T05:21:01.103Z,13.17
2018-08-06T05:22:01.078Z,13.33
2018-08-06T05:23:01.032Z,13.81
2018-08-06T05:24:01.018Z,14.06
2018-08-06T05:25:00.958Z,14.04
2018-08-06T05:26:00.917Z,14.25
2018-08-06T05:27:00.892Z,14.17
2018-08-06T05:28:00.851Z,13.88
2018-08-06T05:29:00.809Z,13.64
2018-08-06T05:30:00.769Z,13.52
2018-08-06T05:31:00.755Z,13.41
2018-08-06T05:32:00.763Z,13.48
2018-08-06T05:33:00.676Z,13.67
2018-08-06T05:34:00.641Z,14.06
2018-08-06T05:35:00.651Z,14.07
2018-08-06T05:36:00.612Z,13.88
2018-08-06T05:37:00.632Z,13.82
2018-08-06T05:38:00.545Z,13.71
2018-08-06T05:39:00.465Z,13.63
2018-08-06T05:40:00.436Z,13.59
2018-08-06T05:41:00.391Z,13.60
2018-08-06T05:42:00.430Z,13.63
2018-08-06T05:43:00.421Z,13.69
2018-08-06T05:44:00.286Z,13.63
2018-08-06T05:45:00.247Z,13.67
2018-08-06T05:46:00.217Z,13.63
2018-08-06T05:47:00.170Z,13.63
2018-08-06T05:48:00.157Z,13.71
2018-08-06T05:49:00.109Z,13.79
2018-08-06T05:50:00.084Z,13.85
2018-08-06T05:51:00.033Z,13.92
2018-08-06T05:52:00.020Z,13.87
2018-08-06T05:52:59.984Z,14.06
2018-08-06T05:53:59.949Z,14.10
2018-08-06T05:54:59.910Z,14.15
2018-08-06T05:55:59.882Z,14.14
2018-08-06T05:56:59.825Z,14.17
2018-08-06T05:57:59.820Z,14.22
2018-08-06T05:58:59.775Z,14.15
2018-08-06T05:59:59.736Z,14.27
2018-08-06T06:00:59.711Z,14.20
2018-08-06T06:01:59.652Z,14.28
2018-08-06T06:02:59.616Z,14.28
2018-08-06T06:03:59.570Z,14.33
2018-08-06T06:04:59.591Z,14.47
2018-08-06T06:05:59.526Z,14.50
2018-08-06T06:06:59.489Z,14.64
2018-08-06T06:07:59.470Z,14.72
2018-08-06T06:08:59.413Z,14.70
2018-08-06T06:09:59.389Z,14.83
2018-08-06T06:10:59.353Z,14.89
2018-08-06T06:11:59.310Z,14.96
2018-08-06T06:12:59.298Z,15.10
2018-08-06T06:13:59.230Z,15.28
2018-08-06T06:14:59.254Z,15.39
2018-08-06T06:15:59.172Z,15.36
2018-08-06T06:16:59.148Z,15.54
2018-08-06T06:17:59.106Z,15.59
2018-08-06T06:18:59.137Z,15.59
2018-08-06T06:19:59.045Z,15.67
2018-08-06T06:20:59.019Z,15.64
2018-08-06T06:21:58.975Z,15.75
2018-08-06T06:22:58.942Z,15.74
2018-08-06T06:23:58.888Z,15.82
2018-08-06T06:24:58.880Z,15.78
2018-08-06T06:25:58.849Z,15.86
2018-08-06T06:26:59.020Z,15.93
2018-08-06T06:27:58.768Z,15.94
2018-08-06T06:28:58.738Z,16.08
2018-08-06T06:29:58.860Z,16.20
2018-08-06T06:30:58.680Z,16.27
2018-08-06T06:31:58.621Z,16.39
2018-08-06T06:32:58.613Z,16.46
2018-08-06T06:33:58.555Z,16.50
2018-08-06T06:34:58.541Z,16.53
2018-08-06T06:35:58.496Z,16.67
2018-08-06T06:36:58.450Z,16.63
2018-08-06T06:37:58.423Z,16.67
2018-08-06T06:38:58.381Z,16.73
2018-08-06T06:39:58.355Z,16.75
2018-08-06T06:40:58.326Z,16.76
2018-08-06T06:41:58.296Z,16.76
2018-08-06T06:42:58.261Z,16.78
2018-08-06T06:43:58.209Z,16.83
2018-08-06T06:44:58.185Z,16.83
2018-08-06T06:45:58.153Z,16.96
2018-08-06T06:46:58.107Z,16.96
2018-08-06T06:47:58.082Z,17.06
2018-08-06T06:48:58.148Z,17.18
2018-08-06T06:49:58.013Z,17.26
2018-08-06T06:50:57.980Z,17.25
2018-08-06T06:51:57.946Z,17.40
2018-08-06T06:52:57.914Z,17.51
2018-08-06T06:53:57.879Z,17.66
2018-08-06T06:54:57.846Z,18.02
2018-08-06T06:55:57.819Z,18.62
2018-08-06T06:56:57.882Z,19.77
2018-08-06T06:57:57.755Z,20.84
2018-08-06T06:58:57.710Z,21.53
2018-08-06T06:59:57.726Z,22.33
2018-08-06T07:00:57.662Z,22.76
2018-08-06T07:01:57.628Z,23.20
2018-08-06T07:02:57.604Z,23.87
2018-08-06T07:03:57.557Z,24.67
2018-08-06T07:04:57.546Z,25.30
2018-08-06T07:05:57.512Z,25.73
2018-08-06T07:06:57.496Z,25.67
2018-08-06T07:07:57.436Z,25.65
2018-08-06T07:08:57.449Z,25.82
2018-08-06T07:09:57.384Z,25.94
2018-08-06T07:10:57.368Z,26.18
2018-08-06T07:11:57.330Z,26.30
2018-08-06T07:12:57.320Z,26.51
2018-08-06T07:13:57.292Z,26.84
2018-08-06T07:14:58.353Z,27.24
2018-08-06T07:15:57.216Z,27.36
2018-08-06T07:16:57.205Z,27.39
2018-08-06T07:17:57.220Z,27.46
2018-08-06T07:18:57.154Z,27.19
2018-08-06T07:19:57.125Z,27.31
2018-08-06T07:20:57.129Z,27.69
2018-08-06T07:21:57.090Z,28.03
2018-08-06T07:22:57.037Z,27.96
2018-08-06T07:23:57.026Z,28.00
2018-08-06T07:24:57.000Z,27.87
2018-08-06T07:25:56.989Z,27.85
2018-08-06T07:26:56.974Z,27.67
2018-08-06T07:27:56.936Z,27.97
2018-08-06T07:28:56.909Z,27.84
2018-08-06T07:29:56.884Z,28.00
2018-08-06T07:30:56.866Z,27.96
2018-08-06T07:31:56.917Z,28.36
2018-08-06T07:32:56.830Z,28.40
2018-08-06T07:33:56.820Z,28.77
2018-08-06T07:34:56.777Z,28.71
2018-08-06T07:35:56.768Z,28.33
2018-08-06T07:36:56.735Z,28.21
2018-08-06T07:37:56.715Z,28.48
2018-08-06T07:38:56.708Z,28.80
2018-08-06T07:39:56.710Z,29.08
2018-08-06T07:40:56.686Z,29.12
2018-08-06T07:41:56.644Z,29.82
2018-08-06T07:42:56.621Z,29.86
2018-08-06T07:43:56.649Z,29.98
2018-08-06T07:44:56.577Z,30.32
2018-08-06T07:45:56.573Z,30.73
2018-08-06T07:46:56.615Z,30.97
2018-08-06T07:47:56.581Z,31.38
2018-08-06T07:48:56.504Z,31.66
2018-08-06T07:49:56.623Z,32.10
2018-08-06T07:50:56.493Z,32.38
2018-08-06T07:51:56.462Z,32.69
2018-08-06T07:52:56.445Z,33.09
2018-08-06T07:53:56.417Z,33.16
2018-08-06T07:54:56.424Z,33.14
2018-08-06T07:55:56.384Z,32.78
2018-08-06T07:56:56.361Z,33.09
2018-08-06T07:57:56.342Z,33.01
2018-08-06T07:58:56.327Z,32.21
2018-08-06T07:59:56.317Z,31.21
2018-08-06T08:00:56.302Z,30.79
2018-08-06T08:01:56.276Z,31.02
2018-08-06T08:02:56.249Z,31.39
2018-08-06T08:03:56.257Z,32.19
2018-08-06T08:04:56.211Z,32.51
2018-08-06T08:05:56.210Z,31.88
2018-08-06T08:06:56.175Z,31.44
2018-08-06T08:07:56.165Z,30.38
2018-08-06T08:08:56.151Z,30.83
2018-08-06T08:09:56.126Z,31.69
2018-08-06T08:10:56.109Z,32.33
2018-08-06T08:11:56.167Z,32.70
2018-08-06T08:12:56.100Z,33.09
2018-08-06T08:13:56.061Z,32.69
2018-08-06T08:14:56.078Z,32.50
2018-08-06T08:15:56.040Z,32.43
2018-08-06T08:16:56.044Z,32.57
2018-08-06T08:17:56.046Z,32.74
2018-08-06T08:18:55.981Z,32.50
2018-08-06T08:19:56.000Z,32.30
2018-08-06T08:20:55.959Z,32.57
2018-08-06T08:21:55.945Z,32.92
2018-08-06T08:22:55.919Z,32.99
2018-08-06T08:23:55.901Z,32.57
2018-08-06T08:24:55.920Z,32.40
2018-08-06T08:25:55.889Z,32.48
2018-08-06T08:26:55.873Z,32.41
2018-08-06T08:27:55.860Z,32.59
2018-08-06T08:28:55.826Z,32.79
2018-08-06T08:29:55.810Z,32.75
2018-08-06T08:30:55.813Z,32.85
2018-08-06T08:31:55.781Z,32.93
2018-08-06T08:32:55.756Z,32.89
2018-08-06T08:33:55.757Z,32.35
2018-08-06T08:34:55.710Z,32.50
2018-08-06T08:35:55.714Z,32.15
2018-08-06T08:36:55.694Z,32.52
2018-08-06T08:37:55.702Z,32.99
2018-08-06T08:38:55.647Z,32.96
2018-08-06T08:39:55.655Z,32.88
2018-08-06T08:40:55.623Z,33.15
2018-08-06T08:41:55.616Z,33.35
2018-08-06T08:42:55.598Z,33.61
2018-08-06T08:43:55.577Z,32.74
2018-08-06T08:44:55.543Z,32.94
2018-08-06T08:45:55.535Z,33.29
2018-08-06T08:46:55.535Z,33.12
2018-08-06T08:47:55.510Z,33.15
2018-08-06T08:48:55.492Z,33.65
2018-08-06T08:49:55.492Z,33.44
2018-08-06T08:50:55.456Z,33.32
2018-08-06T08:51:55.492Z,33.54
2018-08-06T08:52:55.421Z,33.07
2018-08-06T08:53:55.410Z,32.97
2018-08-06T08:54:55.406Z,33.19
2018-08-06T08:55:55.410Z,33.56
2018-08-06T08:56:55.375Z,34.03
2018-08-06T08:57:55.324Z,34.08
2018-08-06T08:58:55.377Z,34.27
2018-08-06T08:59:55.389Z,34.12
2018-08-06T09:00:55.319Z,33.66
2018-08-06T09:01:55.289Z,32.97
2018-08-06T09:02:55.261Z,32.41
2018-08-06T09:03:55.262Z,32.19
2018-08-06T09:04:55.244Z,32.08
2018-08-06T09:05:55.194Z,32.00
2018-08-06T09:06:55.208Z,31.95
2018-08-06T09:07:55.178Z,31.93
2018-08-06T09:08:55.157Z,31.86
2018-08-06T09:09:55.143Z,31.92
2018-08-06T09:10:55.138Z,32.26
2018-08-06T09:11:55.131Z,32.74
2018-08-06T09:12:55.103Z,31.63
2018-08-06T09:13:55.132Z,30.88
2018-08-06T09:14:55.112Z,30.61
2018-08-06T09:15:55.039Z,30.46
2018-08-06T09:16:55.038Z,30.57
2018-08-06T09:17:55.003Z,30.89
2018-08-06T09:18:55.005Z,31.39
2018-08-06T09:19:54.971Z,31.26
2018-08-06T09:20:54.964Z,31.85
2018-08-06T09:21:54.960Z,32.23
2018-08-06T09:22:54.944Z,32.00
2018-08-06T09:23:54.911Z,32.26
2018-08-06T09:24:54.892Z,32.40
2018-08-06T09:25:54.886Z,33.03
2018-08-06T09:26:54.907Z,32.51
2018-08-06T09:27:54.867Z,32.78
2018-08-06T09:28:54.852Z,32.81
2018-08-06T09:29:54.801Z,33.11
2018-08-06T09:30:54.803Z,32.97
2018-08-06T09:31:54.799Z,32.67
2018-08-06T09:32:54.770Z,32.14
2018-08-06T09:33:54.767Z,31.99
2018-08-06T09:34:54.733Z,32.14
2018-08-06T09:35:54.730Z,32.06
2018-08-06T09:36:54.687Z,31.44
2018-08-06T09:37:54.678Z,30.49
2018-08-06T09:38:54.668Z,30.75
2018-08-06T09:39:54.645Z,31.48
2018-08-06T09:40:54.628Z,31.76
2018-08-06T09:41:54.659Z,31.75
2018-08-06T09:42:54.661Z,31.80
2018-08-06T09:43:54.592Z,32.23
2018-08-06T09:44:54.587Z,32.22
2018-08-06T09:45:54.532Z,31.96
2018-08-06T09:46:54.537Z,32.55
2018-08-06T09:47:54.520Z,32.18
2018-08-06T09:48:54.495Z,31.48
2018-08-06T09:49:54.473Z,31.46
2018-08-06T09:50:54.449Z,32.23
2018-08-06T09:51:54.455Z,32.38
2018-08-06T09:52:54.539Z,33.15
2018-08-06T09:53:54.451Z,32.38
2018-08-06T09:54:54.388Z,32.60
2018-08-06T09:55:54.366Z,32.81
2018-08-06T09:56:54.363Z,32.00
2018-08-06T09:57:54.397Z,31.91
2018-08-06T09:58:54.326Z,31.65
2018-08-06T09:59:54.294Z,31.69
2018-08-06T10:00:54.310Z,32.11
2018-08-06T10:01:54.271Z,32.38
2018-08-06T10:02:54.244Z,32.89
2018-08-06T10:03:54.214Z,33.03
2018-08-06T10:04:54.214Z,32.96
2018-08-06T10:05:54.339Z,33.23
2018-08-06T10:06:54.172Z,33.21
2018-08-06T10:07:54.143Z,33.42
2018-08-06T10:08:54.131Z,33.54
2018-08-06T10:09:54.100Z,33.44
2018-08-06T10:10:54.093Z,33.59
2018-08-06T10:11:54.151Z,33.69
2018-08-06T10:12:54.053Z,33.57
2018-08-06T10:13:54.074Z,33.49
2018-08-06T10:14:54.021Z,33.78
2018-08-06T10:15:54.004Z,34.05
2018-08-06T10:16:55.048Z,34.17
2018-08-06T10:17:53.963Z,34.16
2018-08-06T10:18:54.030Z,34.50
2018-08-06T10:19:53.928Z,34.32
2018-08-06T10:20:53.924Z,33.50
2018-08-06T10:21:53.904Z,32.99
2018-08-06T10:22:53.906Z,32.94
2018-08-06T10:23:53.860Z,32.84
2018-08-06T10:24:53.840Z,32.10
2018-08-06T10:25:53.826Z,32.07
2018-08-06T10:26:53.864Z,32.40
2018-08-06T10:27:53.789Z,32.85
2018-08-06T10:28:53.762Z,33.09
2018-08-06T10:29:53.767Z,33.53
2018-08-06T10:30:53.724Z,33.57
2018-08-06T10:31:53.706Z,33.68
2018-08-06T10:32:53.694Z,33.95
2018-08-06T10:33:53.691Z,33.79
2018-08-06T10:34:53.677Z,33.31
2018-08-06T10:35:53.643Z,32.96
2018-08-06T10:36:53.614Z,33.22
2018-08-06T10:37:53.609Z,33.35
2018-08-06T10:38:53.586Z,33.34
2018-08-06T10:39:53.580Z,33.45
2018-08-06T10:40:53.548Z,33.41
2018-08-06T10:41:53.553Z,33.56
2018-08-06T10:42:53.522Z,33.93
2018-08-06T10:43:53.551Z,34.12
2018-08-06T10:44:53.482Z,34.27
2018-08-06T10:45:53.457Z,34.06
2018-08-06T10:46:53.457Z,33.76
2018-08-06T10:47:53.423Z,33.61
2018-08-06T10:48:53.414Z,33.71
2018-08-06T10:49:53.387Z,33.75
2018-08-06T10:50:53.397Z,33.94
2018-08-06T10:51:53.343Z,34.03
2018-08-06T10:52:53.333Z,34.15
2018-08-06T10:53:53.378Z,33.86
2018-08-06T10:54:53.308Z,34.08
2018-08-06T10:55:53.292Z,33.91
2018-08-06T10:56:53.287Z,33.54
2018-08-06T10:57:53.245Z,33.07
2018-08-06T10:58:53.238Z,33.09
2018-08-06T10:59:53.239Z,33.00
2018-08-06T11:00:53.201Z,32.72
2018-08-06T11:01:53.183Z,32.97
2018-08-06T11:02:53.165Z,33.44
2018-08-06T11:03:53.158Z,33.59
2018-08-06T11:04:53.127Z,33.82
2018-08-06T11:05:53.107Z,33.94
2018-08-06T11:06:53.079Z,33.68
2018-08-06T11:07:53.070Z,32.82
2018-08-06T11:08:53.139Z,32.79
2018-08-06T11:09:53.025Z,32.94
2018-08-06T11:10:53.007Z,32.84
2018-08-06T11:11:53.048Z,32.99
2018-08-06T11:12:52.982Z,32.93
2018-08-06T11:13:52.965Z,32.99
2018-08-06T11:14:52.953Z,32.75
2018-08-06T11:15:52.951Z,32.67
2018-08-06T11:16:52.927Z,32.82
2018-08-06T11:17:52.892Z,33.16
2018-08-06T11:18:52.872Z,33.42
2018-08-06T11:19:52.885Z,33.22
2018-08-06T11:20:53.652Z,32.55
2018-08-06T11:21:52.819Z,31.89
2018-08-06T11:22:52.796Z,31.65
2018-08-06T11:23:52.790Z,31.91
2018-08-06T11:24:52.756Z,32.08
2018-08-06T11:25:52.745Z,31.78
2018-08-06T11:26:52.742Z,31.31
2018-08-06T11:27:52.762Z,31.23
2018-08-06T11:28:52.684Z,31.44
2018-08-06T11:29:52.684Z,31.54
2018-08-06T11:30:52.673Z,31.69
2018-08-06T11:31:52.635Z,32.01
2018-08-06T11:32:52.631Z,31.99
2018-08-06T11:33:52.593Z,32.38
2018-08-06T11:34:52.570Z,32.55
2018-08-06T11:35:52.580Z,32.78
2018-08-06T11:36:52.585Z,33.03
2018-08-06T11:37:52.516Z,33.41
2018-08-06T11:38:52.504Z,33.60
2018-08-06T11:39:52.499Z,33.31
2018-08-06T11:40:52.455Z,32.88
2018-08-06T11:41:52.441Z,32.77
2018-08-06T11:42:52.442Z,32.57
2018-08-06T11:43:52.429Z,32.23
2018-08-06T11:44:52.386Z,32.29
2018-08-06T11:45:52.367Z,32.22
2018-08-06T11:46:52.371Z,32.33
2018-08-06T11:47:52.382Z,32.52
2018-08-06T11:48:52.350Z,32.69
2018-08-06T11:49:52.288Z,32.45
2018-08-06T11:50:52.290Z,32.37
2018-08-06T11:51:52.285Z,32.13
2018-08-06T11:52:52.244Z,32.21
2018-08-06T11:53:52.216Z,32.38
2018-08-06T11:54:52.203Z,32.72
2018-08-06T11:55:52.228Z,32.77
2018-08-06T11:56:52.353Z,32.87
2018-08-06T11:57:52.141Z,32.85
2018-08-06T11:58:52.151Z,32.96
2018-08-06T11:59:52.138Z,32.99
2018-08-06T12:00:52.167Z,32.88
2018-08-06T12:01:52.128Z,32.85
2018-08-06T12:02:52.086Z,32.96
2018-08-06T12:03:52.081Z,32.84
2018-08-06T12:04:52.083Z,33.18
2018-08-06T12:05:52.089Z,32.78
2018-08-06T12:06:52.074Z,32.26
2018-08-06T12:07:52.029Z,32.56
2018-08-06T12:08:52.100Z,32.77
2018-08-06T12:09:51.919Z,33.00
2018-08-06T12:10:51.903Z,32.96
2018-08-06T12:11:51.884Z,32.93
2018-08-06T12:12:51.871Z,33.16
2018-08-06T12:13:51.844Z,33.00
2018-08-06T12:14:51.834Z,33.23
2018-08-06T12:15:51.821Z,33.38
2018-08-06T12:16:51.915Z,33.47
2018-08-06T12:17:51.796Z,33.23
2018-08-06T12:18:51.761Z,33.35
2018-08-06T12:19:51.742Z,33.41
2018-08-06T12:20:51.759Z,33.54
2018-08-06T12:21:51.722Z,33.44
2018-08-06T12:22:51.710Z,33.01
2018-08-06T12:23:51.684Z,32.52
2018-08-06T12:24:51.660Z,32.59
2018-08-06T12:25:51.648Z,32.69
2018-08-06T12:26:51.621Z,33.15
2018-08-06T12:27:51.597Z,33.29
2018-08-06T12:28:51.576Z,33.11
2018-08-06T12:29:51.578Z,33.14
2018-08-06T12:30:51.533Z,32.96
2018-08-06T12:31:51.537Z,32.97
2018-08-06T12:32:51.492Z,33.04
2018-08-06T12:33:51.488Z,33.26
2018-08-06T12:34:51.468Z,33.28
2018-08-06T12:35:51.443Z,33.39
2018-08-06T12:36:51.476Z,33.41
2018-08-06T12:37:51.440Z,33.22
2018-08-06T12:38:51.407Z,33.21
2018-08-06T12:39:51.375Z,33.41
2018-08-06T12:40:51.403Z,33.69
2018-08-06T12:41:51.337Z,33.73
2018-08-06T12:42:51.334Z,33.93
2018-08-06T12:43:51.316Z,33.75
2018-08-06T12:44:51.300Z,33.31
2018-08-06T12:45:51.279Z,33.03
2018-08-06T12:46:51.241Z,33.00
2018-08-06T12:47:51.234Z,33.14
2018-08-06T12:48:51.358Z,33.21
2018-08-06T12:49:51.208Z,33.19
2018-08-06T12:50:51.173Z,33.47
2018-08-06T12:51:51.163Z,33.57